sensor_id;sensor_type;location;lat;lon;timestamp;pressure;altitude;pressure_sealevel;temperature;humidity
49827;BME280;35715;51.570;6.036;2022-08-11T00:01:26;102100.03;;;22.95;46.18
49827;BME280;35715;51.570;6.036;2022-08-11T00:03:59;102099.16;;;22.96;45.94
49827;BME280;35715;51.570;6.036;2022-08-11T00:06:46;102093.91;;;22.96;46.56
49827;BME280;35715;51.570;6.036;2022-08-11T00:09:15;102098.50;;;23.02;45.94
49827;BME280;35715;51.570;6.036;2022-08-11T00:17:11;102096.84;;;23.06;46.32
49827;BME280;35715;51.570;6.036;2022-08-11T00:19:46;102092.56;;;23.08;45.94
49827;BME280;35715;51.570;6.036;2022-08-11T00:22:19;102098.72;;;23.08;46.37
49827;BME280;35715;51.570;6.036;2022-08-11T00:24:46;102099.59;;;23.09;46.09
49827;BME280;35715;51.570;6.036;2022-08-11T00:27:13;102102.22;;;23.09;45.87
49827;BME280;35715;51.570;6.036;2022-08-11T00:29:38;102102.13;;;23.06;45.74
49827;BME280;35715;51.570;6.036;2022-08-11T00:32:05;102102.94;;;23.03;45.85
49827;BME280;35715;51.570;6.036;2022-08-11T00:34:37;102104.59;;;23.01;45.96
49827;BME280;35715;51.570;6.036;2022-08-11T00:37:09;102107.97;;;22.97;45.49
49827;BME280;35715;51.570;6.036;2022-08-11T00:39:47;102107.81;;;22.92;45.63
49827;BME280;35715;51.570;6.036;2022-08-11T00:42:31;102100.72;;;22.91;
49827;BME280;35715;51.570;6.036;2022-08-11T00:45:41;102104.84;;;22.84;45.67
49827;BME280;35715;51.570;6.036;2022-08-11T00:59:54;102098.78;;;22.63;46.05
49827;BME280;35715;51.570;6.036;2022-08-11T01:05:40;102103.53;;;22.49;46.58
49827;BME280;35715;51.570;6.036;2022-08-11T01:08:35;102096.41;;;22.46;46.40
49827;BME280;35715;51.570;6.036;2022-08-11T01:14:07;102092.66;;;22.19;46.41
49827;BME280;35715;51.570;6.036;2022-08-11T01:45:43;102102.31;;;21.97;47.08
49827;BME280;35715;51.570;6.036;2022-08-11T01:48:21;102113.59;;;21.94;46.47
49827;BME280;35715;51.570;6.036;2022-08-11T01:51:07;102114.91;;;21.85;47.21
49827;BME280;35715;51.570;6.036;2022-08-11T01:53:59;102103.47;;;21.83;46.71
49827;BME280;35715;51.570;6.036;2022-08-11T01:56:42;102097.00;;;21.74;47.72
49827;BME280;35715;51.570;6.036;2022-08-11T01:59:34;102102.31;;;21.76;47.57
49827;BME280;35715;51.570;6.036;2022-08-11T02:04:55;102107.50;;;21.74;47.41
49827;BME280;35715;51.570;6.036;2022-08-11T02:07:51;102105.56;;;21.70;47.53
49827;BME280;35715;51.570;6.036;2022-08-11T02:10:34;102102.06;;;21.70;47.61
49827;BME280;35715;51.570;6.036;2022-08-11T02:13:45;102097.50;;;21.66;47.62
49827;BME280;35715;51.570;6.036;2022-08-11T02:19:09;102108.31;;;21.52;48.02
49827;BME280;35715;51.570;6.036;2022-08-11T02:21:59;102099.56;;;21.52;48.12
49827;BME280;35715;51.570;6.036;2022-08-11T02:25:04;102098.41;;;21.47;48.29
49827;BME280;35715;51.570;6.036;2022-08-11T02:28:00;102095.66;;;21.43;48.02
49827;BME280;35715;51.570;6.036;2022-08-11T02:30:31;102106.22;;;21.45;48.15
49827;BME280;35715;51.570;6.036;2022-08-11T02:33:12;102108.50;;;21.37;48.22
49827;BME280;35715;51.570;6.036;2022-08-11T02:36:19;102108.25;;;21.31;48.07
49827;BME280;35715;51.570;6.036;2022-08-11T02:41:22;102100.38;;;21.31;48.16
49827;BME280;35715;51.570;6.036;2022-08-11T02:44:23;102097.47;;;21.25;48.50
49827;BME280;35715;51.570;6.036;2022-08-11T02:47:08;102103.13;;;21.15;48.31
49827;BME280;35715;51.570;6.036;2022-08-11T02:49:59;102097.91;;;20.95;49.39
49827;BME280;35715;51.570;6.036;2022-08-11T03:01:14;102094.94;;;20.87;50.43
49827;BME280;35715;51.570;6.036;2022-08-11T03:04:04;102092.03;;;20.81;50.37
49827;BME280;35715;51.570;6.036;2022-08-11T03:06:40;102102.44;;;20.80;50.30
49827;BME280;35715;51.570;6.036;2022-08-11T03:09:17;102093.69;;;20.79;50.25
49827;BME280;35715;51.570;6.036;2022-08-11T03:21:08;102089.00;;;20.54;51.06
49827;BME280;35715;51.570;6.036;2022-08-11T03:23:58;102098.44;;;20.50;51.75
49827;BME280;35715;51.570;6.036;2022-08-11T03:27:00;102092.78;;;20.41;52.21
49827;BME280;35715;51.570;6.036;2022-08-11T03:29:34;102095.31;;;20.39;51.71
49827;BME280;35715;51.570;6.036;2022-08-11T03:32:08;102097.31;;;20.45;51.31
49827;BME280;35715;51.570;6.036;2022-08-11T03:34:38;102098.91;;;20.42;51.62
49827;BME280;35715;51.570;6.036;2022-08-11T03:37:24;102098.97;;;20.43;51.46
49827;BME280;35715;51.570;6.036;2022-08-11T03:43:11;102095.31;;;20.39;51.27
49827;BME280;35715;51.570;6.036;2022-08-11T03:46:11;102103.94;;;20.37;51.38
49827;BME280;35715;51.570;6.036;2022-08-11T03:51:47;102094.88;;;20.30;51.23
49827;BME280;35715;51.570;6.036;2022-08-11T04:16:35;102094.81;;;20.11;52.65
49827;BME280;35715;51.570;6.036;2022-08-11T04:30:50;102096.16;;;20.02;53.19
49827;BME280;35715;51.570;6.036;2022-08-11T04:47:49;102083.56;;;19.95;53.74
49827;BME280;35715;51.570;6.036;2022-08-11T04:57:04;102092.63;;;19.84;54.52
49827;BME280;35715;51.570;6.036;2022-08-11T05:00:00;102102.38;;;19.87;54.69
49827;BME280;35715;51.570;6.036;2022-08-11T05:03:16;102094.38;;;19.83;54.75
49827;BME280;35715;51.570;6.036;2022-08-11T05:12:01;102106.94;;;19.74;55.36
49827;BME280;35715;51.570;6.036;2022-08-11T05:14:32;102108.13;;;19.79;54.97
49827;BME280;35715;51.570;6.036;2022-08-11T05:17:36;102102.22;;;19.67;55.86
49827;BME280;35715;51.570;6.036;2022-08-11T05:20:21;102109.84;;;19.62;55.05
49827;BME280;35715;51.570;6.036;2022-08-11T05:23:07;102107.31;;;19.64;55.04
49827;BME280;35715;51.570;6.036;2022-08-11T05:25:59;102109.94;;;19.64;55.48
49827;BME280;35715;51.570;6.036;2022-08-11T05:29:00;102106.00;;;19.56;55.89
49827;BME280;35715;51.570;6.036;2022-08-11T05:31:54;102106.31;;;19.62;56.07
49827;BME280;35715;51.570;6.036;2022-08-11T05:34:43;102103.03;;;19.66;55.57
49827;BME280;35715;51.570;6.036;2022-08-11T05:40:13;102115.47;;;19.70;55.91
49827;BME280;35715;51.570;6.036;2022-08-11T05:43:01;102120.78;;;19.72;55.65
49827;BME280;35715;51.570;6.036;2022-08-11T05:46:04;102108.59;;;19.72;56.14
49827;BME280;35715;51.570;6.036;2022-08-11T05:48:50;102108.81;;;19.77;55.62
49827;BME280;35715;51.570;6.036;2022-08-11T05:51:37;102119.63;;;19.83;56.02
49827;BME280;35715;51.570;6.036;2022-08-11T05:54:23;102109.38;;;19.88;55.53
49827;BME280;35715;51.570;6.036;2022-08-11T05:57:29;102110.47;;;19.91;55.01
49827;BME280;35715;51.570;6.036;2022-08-11T06:00:05;102109.91;;;19.98;55.90
49827;BME280;35715;51.570;6.036;2022-08-11T06:02:48;102109.31;;;20.04;55.87
49827;BME280;35715;51.570;6.036;2022-08-11T06:05:15;102102.75;;;20.12;55.75
49827;BME280;35715;51.570;6.036;2022-08-11T06:07:40;102110.00;;;20.18;55.73
49827;BME280;35715;51.570;6.036;2022-08-11T06:10:08;102104.91;;;20.21;55.69
49827;BME280;35715;51.570;6.036;2022-08-11T06:12:34;102105.38;;;20.30;55.79
49827;BME280;35715;51.570;6.036;2022-08-11T06:15:06;102111.72;;;20.35;55.52
49827;BME280;35715;51.570;6.036;2022-08-11T06:17:34;102110.13;;;20.39;54.93
49827;BME280;35715;51.570;6.036;2022-08-11T06:20:08;102106.84;;;20.43;54.94
49827;BME280;35715;51.570;6.036;2022-08-11T06:22:42;102110.09;;;20.57;54.25
49827;BME280;35715;51.570;6.036;2022-08-11T06:25:09;102112.72;;;20.75;54.33
49827;BME280;35715;51.570;6.036;2022-08-11T06:27:37;102115.50;;;20.98;54.06
49827;BME280;35715;51.570;6.036;2022-08-11T06:30:07;102120.75;;;21.37;52.70
49827;BME280;35715;51.570;6.036;2022-08-11T06:32:45;102110.50;;;22.05;52.35
49827;BME280;35715;51.570;6.036;2022-08-11T06:37:52;102111.50;;;22.97;48.27
49827;BME280;35715;51.570;6.036;2022-08-11T06:43:20;102108.38;;;24.09;45.84
49827;BME280;35715;51.570;6.036;2022-08-11T06:46:08;102115.28;;;24.61;44.23
49827;BME280;35715;51.570;6.036;2022-08-11T06:48:38;102113.78;;;25.30;43.68
49827;BME280;35715;51.570;6.036;2022-08-11T06:51:07;102110.31;;;26.00;42.37
49827;BME280;35715;51.570;6.036;2022-08-11T06:53:51;102114.47;;;26.28;39.72
49827;BME280;35715;51.570;6.036;2022-08-11T06:56:44;102103.03;;;26.67;40.41
49827;BME280;35715;51.570;6.036;2022-08-11T06:59:40;102110.97;;;27.12;38.23
49827;BME280;35715;51.570;6.036;2022-08-11T07:02:30;102120.56;;;27.51;38.40
49827;BME280;35715;51.570;6.036;2022-08-11T07:05:23;102100.75;;;27.80;37.43
49827;BME280;35715;51.570;6.036;2022-08-11T07:14:22;102104.34;;;28.41;35.37
49827;BME280;35715;51.570;6.036;2022-08-11T07:17:13;102107.81;;;29.01;34.70
49827;BME280;35715;51.570;6.036;2022-08-11T07:19:42;102105.81;;;29.66;34.29
49827;BME280;35715;51.570;6.036;2022-08-11T07:22:30;102108.78;;;30.00;33.48
49827;BME280;35715;51.570;6.036;2022-08-11T07:25:15;102113.31;;;30.13;32.13
49827;BME280;35715;51.570;6.036;2022-08-11T07:28:06;102112.44;;;30.17;31.21
49827;BME280;35715;51.570;6.036;2022-08-11T07:30:55;102111.09;;;29.61;32.81
49827;BME280;35715;51.570;6.036;2022-08-11T07:33:28;102112.63;;;29.34;32.47
49827;BME280;35715;51.570;6.036;2022-08-11T07:36:04;102101.97;;;29.33;33.16
49827;BME280;35715;51.570;6.036;2022-08-11T07:38:38;102105.44;;;29.26;32.75
49827;BME280;35715;51.570;6.036;2022-08-11T07:41:12;102103.88;;;29.49;33.25
49827;BME280;35715;51.570;6.036;2022-08-11T07:43:39;102103.31;;;29.81;33.26
49827;BME280;35715;51.570;6.036;2022-08-11T07:46:06;102112.41;;;30.14;32.83
49827;BME280;35715;51.570;6.036;2022-08-11T07:48:52;102117.84;;;30.30;32.12
49827;BME280;35715;51.570;6.036;2022-08-11T07:51:38;102108.41;;;30.95;32.11
49827;BME280;35715;51.570;6.036;2022-08-11T07:54:23;102109.34;;;31.03;31.12
49827;BME280;35715;51.570;6.036;2022-08-11T07:56:57;102104.00;;;31.09;30.10
49827;BME280;35715;51.570;6.036;2022-08-11T07:59:24;102106.78;;;31.60;30.63
49827;BME280;35715;51.570;6.036;2022-08-11T08:02:10;102098.78;;;31.74;29.96
49827;BME280;35715;51.570;6.036;2022-08-11T08:04:56;102096.13;;;31.73;29.56
49827;BME280;35715;51.570;6.036;2022-08-11T08:07:51;102104.06;;;32.10;29.08
49827;BME280;35715;51.570;6.036;2022-08-11T08:10:40;102100.47;;;32.31;27.71
49827;BME280;35715;51.570;6.036;2022-08-11T08:13:25;102105.81;;;32.35;28.19
49827;BME280;35715;51.570;6.036;2022-08-11T08:16:15;102097.72;;;32.71;27.21
49827;BME280;35715;51.570;6.036;2022-08-11T08:18:58;102092.38;;;32.68;27.30
49827;BME280;35715;51.570;6.036;2022-08-11T08:21:27;102099.25;;;33.14;26.62
49827;BME280;35715;51.570;6.036;2022-08-11T08:23:52;102098.97;;;33.58;27.17
49827;BME280;35715;51.570;6.036;2022-08-11T08:26:21;102092.59;;;33.67;26.61
49827;BME280;35715;51.570;6.036;2022-08-11T08:29:06;102103.88;;;34.06;26.26
49827;BME280;35715;51.570;6.036;2022-08-11T08:31:51;102098.84;;;33.74;26.14
49827;BME280;35715;51.570;6.036;2022-08-11T08:34:18;102095.06;;;33.95;26.04
49827;BME280;35715;51.570;6.036;2022-08-11T08:36:49;102100.41;;;33.97;25.12
49827;BME280;35715;51.570;6.036;2022-08-11T08:39:19;102095.06;;;33.97;25.00
49827;BME280;35715;51.570;6.036;2022-08-11T08:41:53;102105.41;;;34.32;25.42
49827;BME280;35715;51.570;6.036;2022-08-11T08:44:21;102104.19;;;34.59;25.81
49827;BME280;35715;51.570;6.036;2022-08-11T08:46:59;102100.41;;;34.77;23.71
49827;BME280;35715;51.570;6.036;2022-08-11T08:49:44;102106.16;;;34.46;24.08
49827;BME280;35715;51.570;6.036;2022-08-11T08:52:22;102098.75;;;34.64;25.13
49827;BME280;35715;51.570;6.036;2022-08-11T08:54:51;102096.28;;;35.15;24.80
49827;BME280;35715;51.570;6.036;2022-08-11T08:57:36;102103.19;;;35.33;23.76
49827;BME280;35715;51.570;6.036;2022-08-11T09:00:07;102109.81;;;35.65;23.34
49827;BME280;35715;51.570;6.036;2022-08-11T09:02:33;102102.25;;;35.91;23.00
49827;BME280;35715;51.570;6.036;2022-08-11T09:04:59;102098.16;;;36.18;23.48
49827;BME280;35715;51.570;6.036;2022-08-11T09:07:26;102103.19;;;36.36;22.78
49827;BME280;35715;51.570;6.036;2022-08-11T09:09:56;102100.59;;;36.74;22.66
49827;BME280;35715;51.570;6.036;2022-08-11T09:12:26;102105.19;;;36.69;22.51
49827;BME280;35715;51.570;6.036;2022-08-11T09:14:53;102096.81;;;36.40;22.48
49827;BME280;35715;51.570;6.036;2022-08-11T09:17:44;102110.66;;;36.66;21.49
49827;BME280;35715;51.570;6.036;2022-08-11T09:20:21;102101.31;;;36.82;21.12
49827;BME280;35715;51.570;6.036;2022-08-11T09:22:50;102097.44;;;36.96;21.71
49827;BME280;35715;51.570;6.036;2022-08-11T09:25:36;102095.69;;;36.94;22.43
49827;BME280;35715;51.570;6.036;2022-08-11T09:28:21;102091.19;;;37.34;22.54
49827;BME280;35715;51.570;6.036;2022-08-11T09:30:49;102098.16;;;37.43;21.52
49827;BME280;35715;51.570;6.036;2022-08-11T09:33:19;102095.31;;;37.84;20.76
49827;BME280;35715;51.570;6.036;2022-08-11T09:35:47;102096.16;;;38.17;20.87
49827;BME280;35715;51.570;6.036;2022-08-11T09:38:15;102092.91;;;38.39;20.45
49827;BME280;35715;51.570;6.036;2022-08-11T09:41:02;102092.50;;;38.21;20.26
49827;BME280;35715;51.570;6.036;2022-08-11T09:43:30;102082.47;;;38.26;21.03
49827;BME280;35715;51.570;6.036;2022-08-11T09:46:14;102085.94;;;38.61;20.54
49827;BME280;35715;51.570;6.036;2022-08-11T09:48:44;102089.97;;;37.82;19.22
49827;BME280;35715;51.570;6.036;2022-08-11T09:51:11;102090.75;;;38.20;20.22
49827;BME280;35715;51.570;6.036;2022-08-11T09:53:42;102091.34;;;37.62;19.40
49827;BME280;35715;51.570;6.036;2022-08-11T09:56:19;102082.88;;;37.79;19.89
49827;BME280;35715;51.570;6.036;2022-08-11T09:59:05;102082.47;;;38.56;20.41
49827;BME280;35715;51.570;6.036;2022-08-11T10:01:34;102078.88;;;38.87;19.37
49827;BME280;35715;51.570;6.036;2022-08-11T10:04:12;102085.53;;;38.12;19.11
49827;BME280;35715;51.570;6.036;2022-08-11T10:06:42;102085.94;;;37.62;18.89
49827;BME280;35715;51.570;6.036;2022-08-11T10:09:33;102073.25;;;37.68;19.88
49827;BME280;35715;51.570;6.036;2022-08-11T10:12:01;102066.22;;;37.62;19.91
49827;BME280;35715;51.570;6.036;2022-08-11T10:14:29;102066.91;;;38.03;19.55
49827;BME280;35715;51.570;6.036;2022-08-11T10:17:15;102071.97;;;38.47;19.21
49827;BME280;35715;51.570;6.036;2022-08-11T10:19:42;102062.81;;;38.52;18.77
49827;BME280;35715;51.570;6.036;2022-08-11T10:22:09;102064.69;;;38.50;18.40
49827;BME280;35715;51.570;6.036;2022-08-11T10:24:54;102062.53;;;38.62;18.49
49827;BME280;35715;51.570;6.036;2022-08-11T10:27:42;102065.44;;;38.24;19.41
49827;BME280;35715;51.570;6.036;2022-08-11T10:30:09;102051.31;;;38.46;19.11
49827;BME280;35715;51.570;6.036;2022-08-11T10:32:56;102054.78;;;38.81;19.00
49827;BME280;35715;51.570;6.036;2022-08-11T10:35:44;102052.50;;;38.95;18.35
49827;BME280;35715;51.570;6.036;2022-08-11T10:38:12;102053.44;;;38.94;18.78
49827;BME280;35715;51.570;6.036;2022-08-11T10:40:40;102044.41;;;39.24;18.14
49827;BME280;35715;51.570;6.036;2022-08-11T10:43:10;102044.91;;;38.80;17.82
49827;BME280;35715;51.570;6.036;2022-08-11T10:45:45;102039.06;;;38.94;18.87
49827;BME280;35715;51.570;6.036;2022-08-11T10:48:33;102034.38;;;38.99;18.04
49827;BME280;35715;51.570;6.036;2022-08-11T10:51:00;102043.66;;;39.45;18.24
49827;BME280;35715;51.570;6.036;2022-08-11T10:53:43;102042.75;;;39.19;17.67
49827;BME280;35715;51.570;6.036;2022-08-11T10:56:30;102039.22;;;39.17;17.45
49827;BME280;35715;51.570;6.036;2022-08-11T10:59:16;102038.75;;;39.31;17.30
49827;BME280;35715;51.570;6.036;2022-08-11T11:01:42;102033.31;;;40.08;17.38
49827;BME280;35715;51.570;6.036;2022-08-11T11:04:16;102021.09;;;40.22;16.58
49827;BME280;35715;51.570;6.036;2022-08-11T11:07:02;102024.22;;;39.86;16.71
49827;BME280;35715;51.570;6.036;2022-08-11T11:12:00;102014.63;;;39.77;15.85
49827;BME280;35715;51.570;6.036;2022-08-11T11:14:47;102017.94;;;39.85;15.98
49827;BME280;35715;51.570;6.036;2022-08-11T11:17:50;102015.94;;;39.40;15.57
49827;BME280;35715;51.570;6.036;2022-08-11T11:20:42;102013.63;;;40.28;16.06
49827;BME280;35715;51.570;6.036;2022-08-11T11:23:27;102019.69;;;40.35;15.08
49827;BME280;35715;51.570;6.036;2022-08-11T11:37:32;102017.53;;;39.46;16.37
49827;BME280;35715;51.570;6.036;2022-08-11T11:40:05;102008.28;;;39.53;16.63
49827;BME280;35715;51.570;6.036;2022-08-11T11:42:34;102001.00;;;40.05;15.69
49827;BME280;35715;51.570;6.036;2022-08-11T11:45:01;102007.31;;;39.81;16.46
49827;BME280;35715;51.570;6.036;2022-08-11T11:47:29;102003.75;;;39.55;16.47
49827;BME280;35715;51.570;6.036;2022-08-11T11:49:56;102014.00;;;39.70;16.78
49827;BME280;35715;51.570;6.036;2022-08-11T11:52:22;102008.13;;;40.08;17.33
49827;BME280;35715;51.570;6.036;2022-08-11T11:54:51;102004.75;;;40.01;17.13
49827;BME280;35715;51.570;6.036;2022-08-11T11:57:20;102002.72;;;40.08;16.11
49827;BME280;35715;51.570;6.036;2022-08-11T12:00:07;101999.97;;;40.09;16.14
49827;BME280;35715;51.570;6.036;2022-08-11T12:02:54;101988.91;;;39.90;16.92
49827;BME280;35715;51.570;6.036;2022-08-11T12:05:21;101987.03;;;39.92;17.66
49827;BME280;35715;51.570;6.036;2022-08-11T12:07:47;101982.66;;;40.14;17.33
49827;BME280;35715;51.570;6.036;2022-08-11T12:10:31;101984.56;;;40.57;15.92
49827;BME280;35715;51.570;6.036;2022-08-11T12:13:00;101988.31;;;40.53;16.39
49827;BME280;35715;51.570;6.036;2022-08-11T12:15:47;101986.09;;;40.41;16.92
49827;BME280;35715;51.570;6.036;2022-08-11T12:18:14;101980.72;;;40.39;16.69
49827;BME280;35715;51.570;6.036;2022-08-11T12:20:41;101973.59;;;40.38;16.65
49827;BME280;35715;51.570;6.036;2022-08-11T12:23:09;101969.94;;;39.92;15.99
49827;BME280;35715;51.570;6.036;2022-08-11T12:25:54;101965.63;;;38.84;16.90
49827;BME280;35715;51.570;6.036;2022-08-11T12:28:38;101968.00;;;38.66;17.35
49827;BME280;35715;51.570;6.036;2022-08-11T12:31:05;101959.38;;;38.82;16.24
49827;BME280;35715;51.570;6.036;2022-08-11T12:33:34;101942.66;;;38.97;17.50
49827;BME280;35715;51.570;6.036;2022-08-11T12:36:02;101939.25;;;38.92;16.51
49827;BME280;35715;51.570;6.036;2022-08-11T12:38:28;101934.72;;;38.93;15.79
49827;BME280;35715;51.570;6.036;2022-08-11T12:40:55;101947.84;;;39.30;15.70
49827;BME280;35715;51.570;6.036;2022-08-11T12:43:58;101941.41;;;39.34;15.74
49827;BME280;35715;51.570;6.036;2022-08-11T12:46:44;101929.47;;;38.61;16.16
49827;BME280;35715;51.570;6.036;2022-08-11T12:49:17;101932.78;;;38.98;17.31
49827;BME280;35715;51.570;6.036;2022-08-11T12:52:05;101928.22;;;38.73;16.74
49827;BME280;35715;51.570;6.036;2022-08-11T12:54:58;101927.03;;;38.54;17.37
49827;BME280;35715;51.570;6.036;2022-08-11T12:57:47;101925.94;;;38.59;18.33
49827;BME280;35715;51.570;6.036;2022-08-11T13:00:32;101920.78;;;38.25;17.53
49827;BME280;35715;51.570;6.036;2022-08-11T13:03:23;101918.38;;;37.84;17.63
49827;BME280;35715;51.570;6.036;2022-08-11T13:06:08;101911.19;;;38.14;16.75
49827;BME280;35715;51.570;6.036;2022-08-11T13:08:37;101911.69;;;38.27;17.12
49827;BME280;35715;51.570;6.036;2022-08-11T13:11:03;101915.56;;;37.89;17.31
49827;BME280;35715;51.570;6.036;2022-08-11T13:13:49;101904.81;;;37.87;16.78
49827;BME280;35715;51.570;6.036;2022-08-11T13:16:17;101909.16;;;37.91;16.52
49827;BME280;35715;51.570;6.036;2022-08-11T13:18:45;101900.66;;;37.44;17.75
49827;BME280;35715;51.570;6.036;2022-08-11T13:21:11;101903.34;;;37.44;17.64
49827;BME280;35715;51.570;6.036;2022-08-11T13:23:39;101896.25;;;37.41;18.05
49827;BME280;35715;51.570;6.036;2022-08-11T13:26:06;101889.63;;;37.20;17.69
49827;BME280;35715;51.570;6.036;2022-08-11T13:28:34;101896.09;;;37.13;17.70
49827;BME280;35715;51.570;6.036;2022-08-11T13:31:01;101885.66;;;37.01;17.23
49827;BME280;35715;51.570;6.036;2022-08-11T13:33:44;101882.97;;;37.34;18.21
49827;BME280;35715;51.570;6.036;2022-08-11T13:36:19;101884.59;;;37.41;16.22
49827;BME280;35715;51.570;6.036;2022-08-11T13:38:45;101881.03;;;37.40;16.92
49827;BME280;35715;51.570;6.036;2022-08-11T13:41:12;101876.22;;;37.50;16.83
49827;BME280;35715;51.570;6.036;2022-08-11T13:43:57;101877.09;;;37.52;18.42
49827;BME280;35715;51.570;6.036;2022-08-11T13:46:24;101867.63;;;37.69;16.95
49827;BME280;35715;51.570;6.036;2022-08-11T13:48:53;101878.50;;;37.34;17.95
49827;BME280;35715;51.570;6.036;2022-08-11T13:51:20;101874.66;;;37.10;18.24
49827;BME280;35715;51.570;6.036;2022-08-11T13:54:16;101866.25;;;36.88;18.40
49827;BME280;35715;51.570;6.036;2022-08-11T13:56:48;101866.06;;;36.96;19.08
49827;BME280;35715;51.570;6.036;2022-08-11T13:59:18;101864.28;;;36.96;19.09
49827;BME280;35715;51.570;6.036;2022-08-11T14:01:58;101867.66;;;37.03;18.33
49827;BME280;35715;51.570;6.036;2022-08-11T14:04:34;101863.91;;;36.38;17.38
49827;BME280;35715;51.570;6.036;2022-08-11T14:07:07;101864.19;;;36.63;17.51
49827;BME280;35715;51.570;6.036;2022-08-11T14:09:36;101862.75;;;36.86;17.27
49827;BME280;35715;51.570;6.036;2022-08-11T14:12:07;101856.63;;;36.79;16.59
49827;BME280;35715;51.570;6.036;2022-08-11T14:15:19;101854.47;;;36.18;17.29
49827;BME280;35715;51.570;6.036;2022-08-11T14:18:01;101849.53;;;36.00;17.82
49827;BME280;35715;51.570;6.036;2022-08-11T14:20:31;101851.41;;;36.35;17.89
49827;BME280;35715;51.570;6.036;2022-08-11T14:23:26;101838.25;;;36.23;17.33
49827;BME280;35715;51.570;6.036;2022-08-11T14:25:56;101843.47;;;36.31;16.88
49827;BME280;35715;51.570;6.036;2022-08-11T14:28:40;101853.66;;;36.54;18.14
49827;BME280;35715;51.570;6.036;2022-08-11T14:31:07;101835.44;;;36.29;17.34
49827;BME280;35715;51.570;6.036;2022-08-11T14:33:34;101843.63;;;35.85;18.51
49827;BME280;35715;51.570;6.036;2022-08-11T14:36:02;101838.25;;;35.85;17.77
49827;BME280;35715;51.570;6.036;2022-08-11T14:38:32;101841.00;;;35.81;19.42
49827;BME280;35715;51.570;6.036;2022-08-11T14:40:57;101830.19;;;35.85;18.75
49827;BME280;35715;51.570;6.036;2022-08-11T14:43:42;101840.28;;;35.29;18.65
49827;BME280;35715;51.570;6.036;2022-08-11T14:46:28;101829.38;;;35.36;18.39
49827;BME280;35715;51.570;6.036;2022-08-11T14:49:13;101832.13;;;35.33;17.89
49827;BME280;35715;51.570;6.036;2022-08-11T14:51:40;101834.41;;;35.53;18.11
49827;BME280;35715;51.570;6.036;2022-08-11T14:54:08;101818.00;;;35.24;18.15
49827;BME280;35715;51.570;6.036;2022-08-11T14:56:53;101824.66;;;35.49;18.16
49827;BME280;35715;51.570;6.036;2022-08-11T14:59:21;101819.59;;;35.76;18.49
49827;BME280;35715;51.570;6.036;2022-08-11T15:01:46;101816.09;;;35.30;17.61
49827;BME280;35715;51.570;6.036;2022-08-11T15:04:31;101822.28;;;34.87;19.38
49827;BME280;35715;51.570;6.036;2022-08-11T15:06:57;101821.16;;;34.97;19.12
49827;BME280;35715;51.570;6.036;2022-08-11T15:09:23;101818.06;;;34.71;18.66
49827;BME280;35715;51.570;6.036;2022-08-11T15:11:49;101814.16;;;34.39;19.10
49827;BME280;35715;51.570;6.036;2022-08-11T15:14:32;101814.53;;;34.67;18.96
49827;BME280;35715;51.570;6.036;2022-08-11T15:17:17;101792.28;;;34.63;18.32
49827;BME280;35715;51.570;6.036;2022-08-11T15:19:44;101801.28;;;34.59;18.64
49827;BME280;35715;51.570;6.036;2022-08-11T15:22:29;101795.78;;;34.67;20.09
49827;BME280;35715;51.570;6.036;2022-08-11T15:25:13;101788.25;;;34.38;19.67
49827;BME280;35715;51.570;6.036;2022-08-11T15:27:40;101791.13;;;34.27;19.18
49827;BME280;35715;51.570;6.036;2022-08-11T15:30:25;101781.97;;;34.40;19.96
49827;BME280;35715;51.570;6.036;2022-08-11T15:33:11;101782.19;;;34.28;20.65
49827;BME280;35715;51.570;6.036;2022-08-11T15:35:59;101788.50;;;34.21;20.24
49827;BME280;35715;51.570;6.036;2022-08-11T15:38:52;101786.91;;;34.09;20.41
49827;BME280;35715;51.570;6.036;2022-08-11T15:41:20;101783.81;;;34.35;21.54
49827;BME280;35715;51.570;6.036;2022-08-11T15:44:09;101782.16;;;34.29;20.91
49827;BME280;35715;51.570;6.036;2022-08-11T15:47:01;101771.91;;;34.53;19.88
49827;BME280;35715;51.570;6.036;2022-08-11T15:49:36;101770.75;;;34.68;19.50
49827;BME280;35715;51.570;6.036;2022-08-11T15:52:08;101769.72;;;34.77;19.87
49827;BME280;35715;51.570;6.036;2022-08-11T15:54:39;101767.13;;;34.71;20.63
49827;BME280;35715;51.570;6.036;2022-08-11T15:57:10;101762.16;;;34.47;21.24
49827;BME280;35715;51.570;6.036;2022-08-11T15:59:56;101764.69;;;34.04;20.02
49827;BME280;35715;51.570;6.036;2022-08-11T16:02:42;101761.38;;;33.85;20.83
49827;BME280;35715;51.570;6.036;2022-08-11T16:05:16;101762.19;;;33.88;21.08
49827;BME280;35715;51.570;6.036;2022-08-11T16:07:43;101762.72;;;34.13;20.99
49827;BME280;35715;51.570;6.036;2022-08-11T16:10:14;101757.13;;;34.29;22.17
49827;BME280;35715;51.570;6.036;2022-08-11T16:12:51;101763.75;;;34.03;22.56
49827;BME280;35715;51.570;6.036;2022-08-11T16:15:49;101751.28;;;34.04;20.78
49827;BME280;35715;51.570;6.036;2022-08-11T16:18:42;101760.75;;;33.63;21.50
49827;BME280;35715;51.570;6.036;2022-08-11T16:21:15;101758.19;;;33.55;22.39
49827;BME280;35715;51.570;6.036;2022-08-11T16:23:45;101756.28;;;33.65;23.13
49827;BME280;35715;51.570;6.036;2022-08-11T16:26:18;101743.69;;;33.73;23.00
49827;BME280;35715;51.570;6.036;2022-08-11T16:28:49;101740.22;;;33.66;21.51
49827;BME280;35715;51.570;6.036;2022-08-11T16:31:15;101744.75;;;33.59;22.14
49827;BME280;35715;51.570;6.036;2022-08-11T16:33:42;101747.50;;;33.53;21.42
49827;BME280;35715;51.570;6.036;2022-08-11T16:36:14;101732.28;;;33.58;21.71
49827;BME280;35715;51.570;6.036;2022-08-11T16:39:01;101738.94;;;33.30;22.65
49827;BME280;35715;51.570;6.036;2022-08-11T16:41:32;101741.00;;;33.01;23.35